createdAt,value
2023-05-16T00:01:47.227Z,10.30
2023-05-16T00:04:15.522Z,11.00
2023-05-16T00:06:43.634Z,10.80
2023-05-16T00:09:11.671Z,10.30
2023-05-16T00:11:42.753Z,11.20
2023-05-16T00:14:12.747Z,10.30
2023-05-16T00:16:41.834Z,9.90
2023-05-16T00:19:10.487Z,10.20
2023-05-16T00:21:38.600Z,10.40
2023-05-16T00:24:07.703Z,10.20
2023-05-16T00:26:35.698Z,10.10
2023-05-16T00:29:03.795Z,10.30
2023-05-16T00:31:33.911Z,10.20
2023-05-16T00:34:01.943Z,10.10
2023-05-16T00:36:31.663Z,10.50
2023-05-16T00:38:59.645Z,10.30
2023-05-16T00:41:28.540Z,11.10
2023-05-16T00:43:56.553Z,10.70
2023-05-16T00:46:24.757Z,10.20
2023-05-16T00:48:54.810Z,10.70
2023-05-16T00:51:23.019Z,10.00
2023-05-16T00:53:51.211Z,10.00
2023-05-16T00:56:19.993Z,10.10
2023-05-16T00:58:49.016Z,10.50
2023-05-16T01:01:17.874Z,10.40
2023-05-16T01:03:47.350Z,10.80
2023-05-16T01:06:17.298Z,10.10
2023-05-16T01:08:45.307Z,10.10
2023-05-16T01:11:19.926Z,10.10
2023-05-16T01:13:56.732Z,10.60
2023-05-16T01:16:34.616Z,10.20
2023-05-16T01:19:16.437Z,10.80
2023-05-16T01:21:51.265Z,10.30
2023-05-16T01:24:28.360Z,10.20
2023-05-16T01:26:59.596Z,10.20
2023-05-16T01:29:27.957Z,10.20
2023-05-16T01:31:56.075Z,10.20
2023-05-16T01:34:24.150Z,10.20
2023-05-16T01:37:01.733Z,10.20
2023-05-16T01:39:35.614Z,10.20
2023-05-16T01:42:09.600Z,10.50
2023-05-16T01:44:42.484Z,10.30
2023-05-16T01:47:14.681Z,10.30
2023-05-16T01:49:47.598Z,10.40
2023-05-16T01:52:22.672Z,10.40
2023-05-16T01:54:54.602Z,10.40
2023-05-16T01:57:27.384Z,10.60
2023-05-16T01:59:55.759Z,10.40
2023-05-16T02:02:28.322Z,10.40
2023-05-16T02:04:56.316Z,10.40
2023-05-16T02:07:24.758Z,10.40
2023-05-16T02:09:52.728Z,10.40
2023-05-16T02:12:20.937Z,11.00
2023-05-16T02:14:50.325Z,10.70
2023-05-16T02:17:18.611Z,10.40
2023-05-16T02:19:46.594Z,10.40
2023-05-16T02:22:14.629Z,10.30
2023-05-16T02:24:42.622Z,10.10
2023-05-16T02:27:10.861Z,10.10
2023-05-16T02:29:38.890Z,10.00
2023-05-16T02:32:08.957Z,10.20
2023-05-16T02:34:41.559Z,9.90
2023-05-16T02:37:13.126Z,9.80
2023-05-16T02:39:41.464Z,10.20
2023-05-16T02:42:11.156Z,9.70
2023-05-16T02:44:40.136Z,10.20
2023-05-16T02:47:09.485Z,10.30
2023-05-16T02:49:37.997Z,9.60
2023-05-16T02:52:07.720Z,9.50
2023-05-16T02:54:35.947Z,9.50
2023-05-16T02:57:04.102Z,9.50
2023-05-16T02:59:32.185Z,9.50
2023-05-16T03:02:00.322Z,9.50
2023-05-16T03:04:29.808Z,9.90
2023-05-16T03:06:58.245Z,9.60
2023-05-16T03:09:28.887Z,9.90
2023-05-16T03:11:59.484Z,9.70
2023-05-16T03:14:27.452Z,9.80
2023-05-16T03:16:55.553Z,9.90
2023-05-16T03:19:23.665Z,9.90
2023-05-16T03:21:53.129Z,10.50
2023-05-16T03:24:22.879Z,10.00
2023-05-16T03:26:53.742Z,10.00
2023-05-16T03:29:22.640Z,10.00
2023-05-16T03:31:50.697Z,10.00
2023-05-16T03:34:18.864Z,10.10
2023-05-16T03:36:46.939Z,10.20
2023-05-16T03:39:18.385Z,10.10
2023-05-16T03:41:46.421Z,10.30
2023-05-16T03:44:14.481Z,10.20
2023-05-16T03:46:42.593Z,10.40
2023-05-16T03:49:10.687Z,10.20
2023-05-16T03:51:38.665Z,10.20
2023-05-16T03:54:06.930Z,10.30
2023-05-16T03:56:36.413Z,10.40
2023-05-16T03:59:04.684Z,10.40
2023-05-16T04:01:32.713Z,10.50
2023-05-16T04:04:00.765Z,10.40
2023-05-16T04:06:31.982Z,10.50
2023-05-16T04:08:59.989Z,10.50
2023-05-16T04:11:28.509Z,10.60
2023-05-16T04:13:57.922Z,10.60
2023-05-16T04:16:26.110Z,10.60
2023-05-16T04:18:54.180Z,10.60
2023-05-16T04:21:23.914Z,10.60
2023-05-16T04:23:52.003Z,11.00
2023-05-16T04:26:22.579Z,10.70
2023-05-16T04:28:50.656Z,10.80
2023-05-16T04:31:20.103Z,10.70
2023-05-16T04:33:48.153Z,10.70
2023-05-16T04:36:16.138Z,10.70
2023-05-16T04:38:44.309Z,10.80
2023-05-16T04:41:12.321Z,10.80
2023-05-16T04:43:40.702Z,10.80
2023-05-16T04:46:10.025Z,10.80
2023-05-16T04:48:39.495Z,10.80
2023-05-16T04:51:07.543Z,10.80
2023-05-16T04:53:35.622Z,10.80
2023-05-16T04:56:05.807Z,10.80
2023-05-16T04:58:33.902Z,10.80
2023-05-16T05:01:02.037Z,10.70
2023-05-16T05:03:32.208Z,10.70
2023-05-16T05:06:01.693Z,10.70
2023-05-16T05:08:29.756Z,10.70
2023-05-16T05:10:57.962Z,11.20
2023-05-16T05:13:26.204Z,10.60
2023-05-16T05:15:54.365Z,10.60
2023-05-16T05:18:22.747Z,10.80
2023-05-16T05:20:52.687Z,10.60
2023-05-16T05:23:22.204Z,10.60
2023-05-16T05:25:50.613Z,10.60
2023-05-16T05:28:18.762Z,10.60
2023-05-16T05:30:48.505Z,10.60
2023-05-16T05:33:19.037Z,10.60
2023-05-16T05:35:47.141Z,10.60
2023-05-16T05:38:15.236Z,10.60
2023-05-16T05:40:44.825Z,11.00
2023-05-16T05:43:12.901Z,10.70
2023-05-16T05:45:40.947Z,10.60
2023-05-16T05:48:10.724Z,10.50
2023-05-16T05:50:39.009Z,10.50
2023-05-16T05:53:07.137Z,10.60
2023-05-16T05:55:35.175Z,10.50
2023-05-16T05:58:07.036Z,10.60
2023-05-16T06:00:35.443Z,10.60
2023-05-16T06:03:03.717Z,10.60
2023-05-16T06:05:31.945Z,10.70
2023-05-16T06:08:00.145Z,10.70
2023-05-16T06:10:31.455Z,10.80
2023-05-16T06:12:59.524Z,10.80
2023-05-16T06:15:29.182Z,11.10
2023-05-16T06:17:58.166Z,11.00
2023-05-16T06:20:26.562Z,10.80
2023-05-16T06:22:54.646Z,10.90
2023-05-16T06:25:22.715Z,10.80
2023-05-16T06:27:50.849Z,11.10
2023-05-16T06:30:18.990Z,10.80
2023-05-16T06:32:48.466Z,10.90
2023-05-16T06:35:16.736Z,10.90
2023-05-16T06:37:44.856Z,10.90
2023-05-16T06:40:15.574Z,10.80
2023-05-16T06:42:43.644Z,10.80
2023-05-16T06:45:13.377Z,11.00
2023-05-16T06:47:41.557Z,10.80
2023-05-16T06:50:12.840Z,10.80
2023-05-16T06:52:41.822Z,10.70
2023-05-16T06:55:10.733Z,10.70
2023-05-16T06:57:41.676Z,10.70
2023-05-16T07:00:12.654Z,10.60
2023-05-16T07:02:40.946Z,10.70
2023-05-16T07:05:10.911Z,10.80
2023-05-16T07:07:39.088Z,10.70
2023-05-16T07:10:07.969Z,10.80
2023-05-16T07:12:42.633Z,10.60
2023-05-16T07:15:14.259Z,10.60
2023-05-16T07:17:43.490Z,10.60
2023-05-16T07:20:14.772Z,10.50
2023-05-16T07:22:43.136Z,10.50
2023-05-16T07:25:12.849Z,10.50
2023-05-16T07:27:44.581Z,10.40
2023-05-16T07:30:14.172Z,10.70
2023-05-16T07:32:43.449Z,10.50
2023-05-16T07:35:16.113Z,10.40
2023-05-16T07:37:44.318Z,10.50
2023-05-16T07:40:13.264Z,10.40
2023-05-16T07:42:41.566Z,10.30
2023-05-16T07:45:10.372Z,10.30
2023-05-16T07:47:38.485Z,10.20
2023-05-16T07:50:07.255Z,10.30
2023-05-16T07:52:39.797Z,10.30
2023-05-16T07:55:09.315Z,10.30
2023-05-16T07:57:37.414Z,10.30
2023-05-16T08:00:06.994Z,10.50
2023-05-16T08:02:40.043Z,10.40
2023-05-16T08:05:09.667Z,10.40
2023-05-16T08:07:39.073Z,10.50
2023-05-16T08:10:08.124Z,10.50
2023-05-16T08:12:36.458Z,10.60
2023-05-16T08:15:07.494Z,10.60
2023-05-16T08:17:35.573Z,10.70
2023-05-16T08:20:04.221Z,10.70
2023-05-16T08:22:33.642Z,10.70
2023-05-16T08:25:03.388Z,10.70
2023-05-16T08:27:31.591Z,11.00
2023-05-16T08:29:59.624Z,10.70
2023-05-16T08:32:27.842Z,10.70
2023-05-16T08:34:55.879Z,10.80
2023-05-16T08:37:23.988Z,10.70
2023-05-16T08:39:52.238Z,10.80
2023-05-16T08:42:21.731Z,10.80
2023-05-16T08:44:50.265Z,11.00
2023-05-16T08:47:21.862Z,10.80
2023-05-16T08:49:52.464Z,10.80
2023-05-16T08:52:22.915Z,10.80
2023-05-16T08:55:01.928Z,10.80
2023-05-16T08:57:39.033Z,10.90
2023-05-16T09:00:12.053Z,10.80
2023-05-16T09:02:41.145Z,10.80
2023-05-16T09:05:12.325Z,11.00
2023-05-16T09:07:40.576Z,10.90
2023-05-16T09:10:09.452Z,10.90
2023-05-16T09:12:40.172Z,10.90
2023-05-16T09:15:11.108Z,10.90
2023-05-16T09:17:42.984Z,10.90
2023-05-16T09:20:13.380Z,11.00
2023-05-16T09:22:50.803Z,11.00
2023-05-16T09:25:29.356Z,11.10
2023-05-16T09:28:03.424Z,11.10
2023-05-16T09:30:33.752Z,11.00
2023-05-16T09:33:02.271Z,11.30
2023-05-16T09:35:43.933Z,11.10
2023-05-16T09:38:16.235Z,11.10
2023-05-16T09:40:44.460Z,11.20
2023-05-16T09:43:17.147Z,11.30
2023-05-16T09:45:47.816Z,11.20
2023-05-16T09:48:17.226Z,11.30
2023-05-16T09:50:49.897Z,11.10
2023-05-16T09:53:18.652Z,11.10
2023-05-16T09:55:46.726Z,11.10
2023-05-16T09:58:21.409Z,11.20
2023-05-16T10:00:49.488Z,11.40
2023-05-16T10:03:17.557Z,11.70
2023-05-16T10:05:45.939Z,11.50
2023-05-16T10:08:15.070Z,11.50
2023-05-16T10:10:43.722Z,11.60
2023-05-16T10:13:14.082Z,11.60
2023-05-16T10:15:44.294Z,11.90
2023-05-16T10:18:14.763Z,11.90
2023-05-16T10:20:45.365Z,12.10
2023-05-16T10:23:17.760Z,12.30
2023-05-16T10:25:46.807Z,12.50
2023-05-16T10:28:16.320Z,12.60
2023-05-16T10:30:47.474Z,12.70
2023-05-16T10:33:17.188Z,12.90
2023-05-16T10:35:46.448Z,13.00
2023-05-16T10:38:18.486Z,12.90
2023-05-16T10:40:48.086Z,12.90
2023-05-16T10:43:25.678Z,13.20
2023-05-16T10:45:59.627Z,13.20
2023-05-16T10:48:32.200Z,13.40
2023-05-16T10:51:00.577Z,13.60
2023-05-16T10:53:34.013Z,13.70
2023-05-16T10:56:12.506Z,13.70
2023-05-16T10:58:49.202Z,13.60
2023-05-16T11:01:23.868Z,13.50
2023-05-16T11:04:08.232Z,13.70
2023-05-16T11:06:46.905Z,13.50
2023-05-16T11:09:23.803Z,13.50
2023-05-16T11:12:02.964Z,13.60
2023-05-16T11:14:38.200Z,13.50
2023-05-16T11:17:12.208Z,13.70
2023-05-16T11:19:45.881Z,13.80
2023-05-16T11:22:32.507Z,13.90
2023-05-16T11:25:02.574Z,14.00
2023-05-16T11:27:32.970Z,14.30
2023-05-16T11:30:04.499Z,14.80
2023-05-16T11:32:36.396Z,14.90
2023-05-16T11:35:05.180Z,15.00
2023-05-16T11:37:33.332Z,15.10
2023-05-16T11:40:02.753Z,15.00
2023-05-16T11:42:33.879Z,14.80
2023-05-16T11:45:09.696Z,14.60
2023-05-16T11:47:40.263Z,14.50
2023-05-16T11:50:12.315Z,14.40
2023-05-16T11:52:40.989Z,14.30
2023-05-16T11:55:11.502Z,14.10
2023-05-16T11:57:40.001Z,13.90
2023-05-16T12:00:16.280Z,13.80
2023-05-16T12:02:45.936Z,13.80
2023-05-16T12:05:14.609Z,13.90
2023-05-16T12:07:44.925Z,13.90
2023-05-16T12:10:14.933Z,14.10
2023-05-16T12:12:45.130Z,14.20
2023-05-16T12:15:14.418Z,14.40
2023-05-16T12:17:46.742Z,14.50
2023-05-16T12:20:16.652Z,14.30
2023-05-16T12:22:46.112Z,14.20
2023-05-16T12:25:23.265Z,14.10
2023-05-16T12:27:51.542Z,13.90
2023-05-16T12:30:20.235Z,13.90
2023-05-16T12:32:54.467Z,14.10
2023-05-16T12:35:22.688Z,14.40
2023-05-16T12:37:51.120Z,14.40
2023-05-16T12:40:22.070Z,14.80
2023-05-16T12:42:52.464Z,14.40
2023-05-16T12:45:20.669Z,14.50
2023-05-16T12:47:51.334Z,14.40
2023-05-16T12:50:19.588Z,14.20
2023-05-16T12:52:50.506Z,14.30
2023-05-16T12:55:18.898Z,14.70
2023-05-16T12:57:48.619Z,14.90
2023-05-16T13:00:18.889Z,14.80
2023-05-16T13:02:47.588Z,14.80
2023-05-16T13:05:17.482Z,14.60
2023-05-16T13:07:46.894Z,14.60
2023-05-16T13:10:15.275Z,14.50
2023-05-16T13:12:43.489Z,14.90
2023-05-16T13:15:12.929Z,14.70
2023-05-16T13:17:42.155Z,14.80
2023-05-16T13:20:17.109Z,14.90
2023-05-16T13:22:46.664Z,14.90
2023-05-16T13:25:14.795Z,15.00
2023-05-16T13:27:43.020Z,15.10
2023-05-16T13:30:11.782Z,14.80
2023-05-16T13:32:40.052Z,14.50
2023-05-16T13:35:09.540Z,14.30
2023-05-16T13:37:38.054Z,14.30
2023-05-16T13:40:10.366Z,14.70
2023-05-16T13:42:39.084Z,15.00
2023-05-16T13:45:09.820Z,15.20
2023-05-16T13:47:38.027Z,15.20
2023-05-16T13:50:10.024Z,14.80
2023-05-16T13:52:39.055Z,14.60
2023-05-16T13:55:09.483Z,14.40
2023-05-16T13:57:37.956Z,14.50
2023-05-16T14:00:35.424Z,14.70
2023-05-16T14:03:00.658Z,14.70
2023-05-16T14:05:28.950Z,14.60
2023-05-16T14:07:57.549Z,14.60
2023-05-16T14:10:27.203Z,14.80
2023-05-16T14:12:55.586Z,15.00
2023-05-16T14:15:26.632Z,15.10
2023-05-16T14:17:55.078Z,15.10
2023-05-16T14:20:23.368Z,14.60
2023-05-16T14:22:51.438Z,14.30
2023-05-16T14:25:19.517Z,14.10
2023-05-16T14:27:50.980Z,14.30
2023-05-16T14:30:19.349Z,14.60
2023-05-16T14:32:47.451Z,14.70
2023-05-16T14:35:15.897Z,14.70
2023-05-16T14:37:44.002Z,14.50
2023-05-16T14:40:13.057Z,14.40
2023-05-16T14:42:41.154Z,14.30
2023-05-16T14:45:11.908Z,14.40
2023-05-16T14:47:40.309Z,14.60
2023-05-16T14:50:09.669Z,14.60
2023-05-16T14:52:41.057Z,14.40
2023-05-16T14:55:09.409Z,14.20
2023-05-16T14:57:37.560Z,14.20
2023-05-16T15:00:07.508Z,14.30
2023-05-16T15:02:36.926Z,14.60
2023-05-16T15:05:05.711Z,15.40
2023-05-16T15:07:34.126Z,15.00
2023-05-16T15:10:02.314Z,14.70
2023-05-16T15:12:33.206Z,14.30
2023-05-16T15:15:01.385Z,14.00
2023-05-16T15:17:29.474Z,14.00
2023-05-16T15:19:59.714Z,14.10
2023-05-16T15:22:30.253Z,14.30
2023-05-16T15:24:59.247Z,14.60
2023-05-16T15:27:29.017Z,14.70
2023-05-16T15:29:59.412Z,14.60
2023-05-16T15:32:27.683Z,14.50
2023-05-16T15:34:56.042Z,14.20
2023-05-16T15:37:26.309Z,14.10
2023-05-16T15:39:54.394Z,13.90
2023-05-16T15:42:22.500Z,13.90
2023-05-16T15:44:50.541Z,13.90
2023-05-16T15:47:18.871Z,14.20
2023-05-16T15:49:46.918Z,14.50
2023-05-16T15:52:15.659Z,14.80
2023-05-16T15:54:45.452Z,14.80
2023-05-16T15:57:16.417Z,14.70
2023-05-16T15:59:44.495Z,14.50
2023-05-16T16:02:12.587Z,14.30
2023-05-16T16:04:40.764Z,14.60
2023-05-16T16:07:08.924Z,14.50
2023-05-16T16:09:38.221Z,14.20
2023-05-16T16:12:08.905Z,14.60
2023-05-16T16:14:37.335Z,14.70
2023-05-16T16:17:05.635Z,14.80
2023-05-16T16:19:33.842Z,14.80
2023-05-16T16:22:01.952Z,14.90
2023-05-16T16:24:30.157Z,14.50
2023-05-16T16:26:58.200Z,14.60
2023-05-16T16:29:29.100Z,14.70
2023-05-16T16:31:57.287Z,14.10
2023-05-16T16:34:25.489Z,13.90
2023-05-16T16:36:53.626Z,13.80
2023-05-16T16:39:21.709Z,13.70
2023-05-16T16:41:49.911Z,13.90
2023-05-16T16:44:18.162Z,13.60
2023-05-16T16:46:47.761Z,13.70
2023-05-16T16:49:19.103Z,13.80
2023-05-16T16:51:48.066Z,13.90
2023-05-16T16:54:16.111Z,13.90
2023-05-16T16:56:44.255Z,13.90
2023-05-16T16:59:12.663Z,13.90
2023-05-16T17:01:41.162Z,13.80
2023-05-16T17:04:10.707Z,13.80
2023-05-16T17:06:38.805Z,13.70
2023-05-16T17:09:13.531Z,13.80
2023-05-16T17:11:42.300Z,13.70
2023-05-16T17:14:12.339Z,14.10
2023-05-16T17:16:40.855Z,13.40
2023-05-16T17:19:11.239Z,13.50
2023-05-16T17:21:40.533Z,13.60
2023-05-16T17:24:09.569Z,13.90
2023-05-16T17:26:38.013Z,14.10
2023-05-16T17:29:06.827Z,14.30
2023-05-16T17:31:35.044Z,14.50
2023-05-16T17:34:03.183Z,14.70
2023-05-16T17:36:32.617Z,14.90
2023-05-16T17:39:07.845Z,15.30
2023-05-16T17:41:38.206Z,15.10
2023-05-16T17:44:07.009Z,15.00
2023-05-16T17:46:38.196Z,14.80
2023-05-16T17:49:08.011Z,14.60
2023-05-16T17:51:52.193Z,14.40
2023-05-16T17:54:22.042Z,14.30
2023-05-16T17:56:51.206Z,14.30
2023-05-16T17:59:19.335Z,14.50
2023-05-16T18:01:47.530Z,14.50
2023-05-16T18:04:20.773Z,14.60
2023-05-16T18:06:57.441Z,14.50
2023-05-16T18:09:25.556Z,14.70
2023-05-16T18:11:56.203Z,14.40
2023-05-16T18:14:24.341Z,14.60
2023-05-16T18:16:52.505Z,14.40
2023-05-16T18:19:21.182Z,14.40
2023-05-16T18:21:50.968Z,14.00
2023-05-16T18:24:19.123Z,14.50
2023-05-16T18:26:48.445Z,13.80
2023-05-16T18:29:18.490Z,13.90
2023-05-16T18:31:46.754Z,13.50
2023-05-16T18:34:15.842Z,13.50
2023-05-16T18:36:43.975Z,13.80
2023-05-16T18:39:17.930Z,13.50
2023-05-16T18:41:48.128Z,13.70
2023-05-16T18:44:17.357Z,13.30
2023-05-16T18:46:46.942Z,13.10
2023-05-16T18:49:15.757Z,13.00
2023-05-16T18:51:44.633Z,13.40
2023-05-16T18:54:12.788Z,13.10
2023-05-16T18:56:42.964Z,12.50
2023-05-16T18:59:11.229Z,12.40
2023-05-16T19:01:40.783Z,12.20
2023-05-16T19:04:09.172Z,12.10
2023-05-16T19:06:37.685Z,12.10
2023-05-16T19:09:05.830Z,11.90
2023-05-16T19:11:33.897Z,11.80
2023-05-16T19:14:03.340Z,11.90
2023-05-16T19:16:31.424Z,12.00
2023-05-16T19:18:59.865Z,11.50
2023-05-16T19:21:28.186Z,11.80
2023-05-16T19:23:56.870Z,11.40
2023-05-16T19:26:26.171Z,11.60
2023-05-16T19:28:54.360Z,11.30
2023-05-16T19:31:23.876Z,11.30
2023-05-16T19:33:51.973Z,11.90
2023-05-16T19:36:21.124Z,11.10
2023-05-16T19:38:49.309Z,11.10
2023-05-16T19:41:17.938Z,11.00
2023-05-16T19:43:46.004Z,11.40
2023-05-16T19:46:15.754Z,10.90
2023-05-16T19:48:45.332Z,10.80
2023-05-16T19:51:13.488Z,10.80
2023-05-16T19:53:42.855Z,10.70
2023-05-16T19:56:11.077Z,10.70
2023-05-16T19:58:39.853Z,10.70
2023-05-16T20:01:07.962Z,10.60
2023-05-16T20:03:36.139Z,10.60
2023-05-16T20:06:06.437Z,10.50
2023-05-16T20:08:34.479Z,10.50
2023-05-16T20:11:02.721Z,10.40
2023-05-16T20:13:32.015Z,10.40
2023-05-16T20:16:00.118Z,10.30
2023-05-16T20:18:28.283Z,10.60
2023-05-16T20:20:58.858Z,10.30
2023-05-16T20:23:28.391Z,10.10
2023-05-16T20:25:56.489Z,10.10
2023-05-16T20:28:24.893Z,10.10
2023-05-16T20:30:52.918Z,10.10
2023-05-16T20:33:22.404Z,10.00
2023-05-16T20:35:50.573Z,10.30
2023-05-16T20:38:18.740Z,9.90
2023-05-16T20:40:48.297Z,9.80
2023-05-16T20:43:16.349Z,9.70
2023-05-16T20:45:47.010Z,10.00
2023-05-16T20:48:15.230Z,9.70
2023-05-16T20:50:43.455Z,9.60
2023-05-16T20:53:14.655Z,9.60
2023-05-16T20:55:42.847Z,9.50
2023-05-16T20:58:12.365Z,9.50
2023-05-16T21:00:40.562Z,9.40
2023-05-16T21:03:08.941Z,9.40
2023-05-16T21:05:37.266Z,9.40
2023-05-16T21:08:05.918Z,9.40
2023-05-16T21:10:33.990Z,9.40
2023-05-16T21:13:02.026Z,9.60
2023-05-16T21:15:31.512Z,9.40
2023-05-16T21:17:59.678Z,9.40
2023-05-16T21:20:29.982Z,9.30
2023-05-16T21:22:58.206Z,9.40
2023-05-16T21:25:26.803Z,9.30
2023-05-16T21:27:55.055Z,9.30
2023-05-16T21:30:23.127Z,9.30
2023-05-16T21:32:52.582Z,9.30
2023-05-16T21:35:23.895Z,9.30
2023-05-16T21:37:51.957Z,9.20
2023-05-16T21:40:25.008Z,9.40
2023-05-16T21:42:53.316Z,9.10
2023-05-16T21:45:21.610Z,9.30
2023-05-16T21:47:49.834Z,9.10
2023-05-16T21:50:19.843Z,9.10
2023-05-16T21:52:47.975Z,9.00
2023-05-16T21:55:16.106Z,9.80
2023-05-16T21:57:45.859Z,9.00
2023-05-16T22:00:18.042Z,8.90
2023-05-16T22:02:46.178Z,8.90
2023-05-16T22:05:14.553Z,8.90
2023-05-16T22:07:44.407Z,8.80
2023-05-16T22:10:13.421Z,8.80
2023-05-16T22:12:41.630Z,8.80
2023-05-16T22:15:10.108Z,8.70
2023-05-16T22:17:38.493Z,8.70
2023-05-16T22:20:08.101Z,8.70
2023-05-16T22:22:36.339Z,8.60
2023-05-16T22:25:06.721Z,8.60
2023-05-16T22:27:34.774Z,8.70
2023-05-16T22:30:02.827Z,8.60
2023-05-16T22:32:31.011Z,8.60
2023-05-16T22:34:59.295Z,8.60
2023-05-16T22:37:27.903Z,8.70
2023-05-16T22:39:56.997Z,8.50
2023-05-16T22:42:26.411Z,8.50
2023-05-16T22:44:57.084Z,8.40
2023-05-16T22:47:28.236Z,8.40
2023-05-16T22:49:56.409Z,8.40
2023-05-16T22:52:27.228Z,8.40
2023-05-16T22:54:55.338Z,8.30
2023-05-16T22:57:24.622Z,8.20
2023-05-16T22:59:54.098Z,8.20
2023-05-16T23:02:22.400Z,8.30
2023-05-16T23:04:50.523Z,8.10
2023-05-16T23:07:18.767Z,8.00
2023-05-16T23:09:46.836Z,8.70
2023-05-16T23:12:14.970Z,8.20
2023-05-16T23:14:43.051Z,7.90
2023-05-16T23:17:12.630Z,7.80
2023-05-16T23:19:40.733Z,8.30
2023-05-16T23:22:08.829Z,7.80
2023-05-16T23:24:36.922Z,8.40
2023-05-16T23:27:05.297Z,7.70
2023-05-16T23:29:33.483Z,7.70
2023-05-16T23:32:03.483Z,7.70
2023-05-16T23:34:32.927Z,7.60
2023-05-16T23:37:01.119Z,8.30
2023-05-16T23:39:29.234Z,7.60
2023-05-16T23:41:57.297Z,8.00
2023-05-16T23:44:25.310Z,7.50
2023-05-16T23:46:53.393Z,7.50
2023-05-16T23:49:21.463Z,7.50
2023-05-16T23:54:22.059Z,7.40
2023-05-16T23:56:50.217Z,7.30
2023-05-16T23:59:18.984Z,7.60
